createdAt,value
2018-12-23T00:00:13.805Z,7.10
2018-12-23T00:02:45.449Z,7.10
2018-12-23T00:08:18.634Z,7.10
2018-12-23T00:13:53.873Z,7.10
2018-12-23T00:22:29.428Z,7.20
2018-12-23T00:25:03.308Z,7.20
2018-12-23T00:27:34.660Z,7.20
2018-12-23T00:30:09.204Z,7.20
2018-12-23T00:32:43.581Z,7.30
2018-12-23T00:35:20.302Z,7.30
2018-12-23T00:37:46.135Z,7.30
2018-12-23T00:40:20.430Z,7.30
2018-12-23T00:42:48.635Z,7.30
2018-12-23T00:45:17.169Z,7.30
2018-12-23T00:47:45.820Z,7.30
2018-12-23T00:50:15.808Z,7.30
2018-12-23T00:52:47.736Z,7.30
2018-12-23T00:55:21.428Z,7.30
2018-12-23T00:57:52.884Z,7.30
2018-12-23T01:00:25.223Z,7.30
2018-12-23T01:02:57.228Z,7.30
2018-12-23T01:05:29.261Z,7.40
2018-12-23T01:07:59.241Z,7.30
2018-12-23T01:10:31.040Z,7.30
2018-12-23T01:13:01.734Z,7.30
2018-12-23T01:15:33.345Z,7.30
2018-12-23T01:18:05.312Z,7.30
2018-12-23T01:20:38.969Z,7.20
2018-12-23T01:23:10.586Z,7.20
2018-12-23T01:25:42.324Z,7.20
2018-12-23T01:28:14.523Z,7.30
2018-12-23T01:30:47.102Z,7.20
2018-12-23T01:33:19.145Z,7.20
2018-12-23T01:35:49.357Z,7.20
2018-12-23T01:38:24.260Z,7.20
2018-12-23T01:40:52.530Z,7.10
2018-12-23T01:43:20.726Z,7.10
2018-12-23T01:45:48.999Z,7.20
2018-12-23T01:48:17.189Z,7.10
2018-12-23T01:50:45.480Z,7.20
2018-12-23T01:53:13.657Z,7.20
2018-12-23T01:55:41.871Z,7.20
2018-12-23T02:01:06.297Z,7.20
2018-12-23T02:03:34.557Z,7.20
2018-12-23T02:06:06.209Z,7.20
2018-12-23T02:08:34.464Z,7.20
2018-12-23T02:11:08.822Z,7.20
2018-12-23T02:13:36.996Z,7.20
2018-12-23T02:16:05.354Z,7.10
2018-12-23T02:18:33.560Z,7.10
2018-12-23T02:21:02.446Z,7.20
2018-12-23T02:23:30.668Z,7.20
2018-12-23T02:26:00.093Z,7.10
2018-12-23T02:28:28.275Z,7.20
2018-12-23T02:30:56.533Z,7.20
2018-12-23T02:33:24.738Z,7.20
2018-12-23T02:35:55.803Z,7.10
2018-12-23T02:38:23.364Z,7.20
2018-12-23T02:40:51.562Z,7.10
2018-12-23T02:43:19.837Z,7.20
2018-12-23T02:48:46.519Z,7.10
2018-12-23T02:51:14.769Z,7.20
2018-12-23T02:56:39.338Z,7.10
2018-12-23T02:59:07.531Z,7.10
2018-12-23T03:01:35.732Z,7.10
2018-12-23T03:04:05.057Z,7.10
2018-12-23T03:06:33.252Z,7.10
2018-12-23T03:09:01.820Z,7.10
2018-12-23T03:11:30.151Z,7.20
2018-12-23T03:16:56.550Z,7.20
2018-12-23T03:19:47.964Z,7.20
2018-12-23T03:22:28.335Z,7.10
2018-12-23T03:25:00.483Z,7.10
2018-12-23T03:27:32.488Z,7.10
2018-12-23T03:30:03.484Z,7.10
2018-12-23T03:32:35.412Z,7.10
2018-12-23T03:35:10.008Z,7.10
2018-12-23T03:37:44.126Z,7.20
2018-12-23T03:40:18.336Z,7.20
2018-12-23T03:42:59.003Z,7.20
2018-12-23T03:45:31.209Z,7.30
2018-12-23T03:50:55.760Z,7.10
2018-12-23T03:53:24.170Z,7.10
2018-12-23T03:55:52.591Z,7.10
2018-12-23T03:58:20.853Z,7.10
2018-12-23T04:00:49.247Z,7.10
2018-12-23T04:03:18.092Z,7.10
2018-12-23T04:05:46.282Z,7.10
2018-12-23T04:08:14.494Z,7.10
2018-12-23T04:13:33.539Z,7.10
2018-12-23T04:16:02.483Z,7.10
2018-12-23T04:18:30.702Z,7.00
2018-12-23T04:20:58.906Z,7.00
2018-12-23T04:23:27.115Z,7.10
2018-12-23T04:25:55.324Z,7.10
2018-12-23T04:28:23.530Z,7.10
2018-12-23T04:31:04.898Z,7.20
2018-12-23T04:36:34.160Z,7.00
2018-12-23T04:39:08.829Z,7.00
2018-12-23T04:41:37.547Z,7.00
2018-12-23T04:44:05.962Z,7.00
2018-12-23T04:46:34.241Z,7.00
2018-12-23T04:49:03.437Z,7.10
2018-12-23T04:51:31.638Z,7.10
2018-12-23T04:54:00.067Z,7.10
2018-12-23T04:56:28.445Z,7.10
2018-12-23T04:58:56.640Z,7.10
2018-12-23T05:01:24.836Z,7.10
2018-12-23T05:03:53.055Z,7.10
2018-12-23T05:06:22.813Z,7.10
2018-12-23T05:08:54.376Z,7.10
2018-12-23T05:11:26.381Z,7.10
2018-12-23T05:13:54.830Z,7.00
2018-12-23T05:16:26.697Z,7.10
2018-12-23T05:18:58.869Z,7.10
2018-12-23T05:21:31.089Z,7.00
2018-12-23T05:24:00.687Z,7.00
2018-12-23T05:29:31.184Z,6.90
2018-12-23T05:32:07.204Z,6.80
2018-12-23T05:34:56.652Z,6.90
2018-12-23T05:37:30.742Z,6.80
2018-12-23T05:40:02.369Z,6.80
2018-12-23T05:42:30.585Z,6.80
2018-12-23T05:45:02.424Z,6.80
2018-12-23T05:47:30.709Z,6.80
2018-12-23T05:49:58.906Z,6.80
2018-12-23T05:52:34.780Z,6.80
2018-12-23T05:55:04.226Z,6.90
2018-12-23T05:57:32.498Z,6.80
2018-12-23T06:00:01.477Z,6.80
2018-12-23T06:02:30.091Z,6.80
2018-12-23T06:04:58.647Z,6.80
2018-12-23T06:07:33.026Z,6.90
2018-12-23T06:10:02.674Z,6.90
2018-12-23T06:12:44.150Z,6.90
2018-12-23T06:15:12.565Z,6.90
2018-12-23T06:17:55.456Z,6.80
2018-12-23T06:20:31.747Z,6.80
2018-12-23T06:23:17.315Z,6.90
2018-12-23T06:25:45.527Z,6.90
2018-12-23T06:28:13.729Z,6.90
2018-12-23T06:33:38.711Z,6.90
2018-12-23T06:36:06.933Z,6.90
2018-12-23T06:38:35.454Z,7.00
2018-12-23T06:41:04.094Z,6.90
2018-12-23T06:43:32.506Z,6.90
2018-12-23T06:46:01.698Z,7.10
2018-12-23T06:48:29.893Z,6.90
2018-12-23T06:50:58.315Z,6.90
2018-12-23T06:53:26.841Z,6.90
2018-12-23T06:55:55.355Z,6.90
2018-12-23T06:58:24.576Z,6.90
2018-12-23T07:00:58.234Z,7.00
2018-12-23T07:15:42.572Z,6.90
2018-12-23T07:21:06.351Z,7.00
2018-12-23T07:23:34.627Z,7.00
2018-12-23T07:26:21.716Z,6.90
2018-12-23T07:28:50.385Z,6.90
2018-12-23T07:31:18.617Z,6.90
2018-12-23T07:33:46.827Z,6.90
2018-12-23T07:36:15.191Z,6.90
2018-12-23T07:38:43.403Z,6.80
2018-12-23T07:41:11.610Z,6.80
2018-12-23T07:43:42.939Z,6.80
2018-12-23T07:46:11.145Z,6.80
2018-12-23T07:48:39.351Z,6.80
2018-12-23T07:51:07.576Z,6.80
2018-12-23T07:53:35.759Z,6.80
2018-12-23T07:56:03.983Z,6.80
2018-12-23T07:58:32.187Z,6.90
2018-12-23T08:01:00.627Z,7.00
2018-12-23T08:03:28.839Z,7.00
2018-12-23T08:05:57.060Z,7.00
2018-12-23T08:08:25.281Z,7.00
2018-12-23T08:10:53.593Z,7.00
2018-12-23T08:13:21.850Z,7.10
2018-12-23T08:15:50.090Z,7.20
2018-12-23T08:18:18.524Z,7.10
2018-12-23T08:20:46.959Z,7.10
2018-12-23T08:23:15.181Z,7.10
2018-12-23T08:25:43.425Z,7.10
2018-12-23T08:28:11.630Z,7.20
2018-12-23T08:30:39.883Z,7.20
2018-12-23T08:33:08.336Z,7.20
2018-12-23T08:35:37.194Z,7.20
2018-12-23T08:38:05.422Z,7.30
2018-12-23T08:40:33.636Z,7.40
2018-12-23T08:43:02.601Z,7.40
2018-12-23T08:45:30.954Z,7.40
2018-12-23T08:47:59.166Z,7.40
2018-12-23T08:50:27.418Z,7.40
2018-12-23T08:52:55.635Z,7.50
2018-12-23T08:55:23.867Z,7.60
2018-12-23T08:57:52.085Z,7.70
2018-12-23T09:00:20.370Z,7.70
2018-12-23T09:02:48.634Z,7.70
2018-12-23T09:05:17.461Z,7.70
2018-12-23T09:07:52.935Z,7.80
2018-12-23T09:10:16.316Z,7.80
2018-12-23T09:12:44.935Z,7.80
2018-12-23T09:15:27.235Z,7.80
2018-12-23T09:17:55.489Z,7.80
2018-12-23T09:20:24.129Z,7.90
2018-12-23T09:22:52.372Z,7.90
2018-12-23T09:25:22.908Z,7.90
2018-12-23T09:27:52.093Z,7.90
2018-12-23T09:30:22.538Z,7.90
2018-12-23T09:32:51.416Z,7.90
2018-12-23T09:35:19.742Z,8.00
2018-12-23T09:37:47.957Z,8.00
2018-12-23T09:40:16.698Z,8.00
2018-12-23T09:42:45.259Z,8.10
2018-12-23T09:45:25.519Z,8.10
2018-12-23T09:47:53.722Z,8.20
2018-12-23T09:50:21.948Z,8.20
2018-12-23T09:52:50.145Z,8.10
2018-12-23T09:55:18.366Z,8.00
2018-12-23T09:57:46.598Z,8.00
2018-12-23T10:00:14.812Z,8.10
2018-12-23T10:02:43.043Z,8.10
2018-12-23T10:05:11.326Z,8.20
2018-12-23T10:07:54.651Z,8.30
2018-12-23T10:10:28.855Z,8.40
2018-12-23T10:12:58.816Z,8.50
2018-12-23T10:15:27.421Z,8.50
2018-12-23T10:17:55.857Z,8.50
2018-12-23T10:20:24.191Z,8.60
2018-12-23T10:22:52.490Z,8.70
2018-12-23T10:25:20.705Z,8.80
2018-12-23T10:27:48.904Z,8.80
2018-12-23T10:30:17.117Z,8.90
2018-12-23T10:32:45.337Z,8.80
2018-12-23T10:35:13.645Z,8.90
2018-12-23T10:37:41.899Z,8.90
2018-12-23T10:40:10.215Z,8.90
2018-12-23T10:42:38.434Z,8.90
2018-12-23T10:45:07.063Z,8.80
2018-12-23T10:47:36.061Z,8.90
2018-12-23T10:50:04.905Z,8.90
2018-12-23T10:52:33.443Z,8.80
2018-12-23T10:55:02.846Z,8.70
2018-12-23T10:57:31.195Z,8.70
2018-12-23T10:59:59.420Z,8.80
2018-12-23T11:02:27.770Z,8.90
2018-12-23T11:04:56.032Z,9.00
2018-12-23T11:07:24.258Z,9.10
2018-12-23T11:09:52.494Z,9.10
2018-12-23T11:12:20.738Z,9.10
2018-12-23T11:14:49.539Z,9.00
2018-12-23T11:17:18.179Z,9.00
2018-12-23T11:19:47.275Z,9.00
2018-12-23T11:22:15.830Z,8.90
2018-12-23T11:24:44.270Z,8.80
2018-12-23T11:27:12.514Z,8.70
2018-12-23T11:29:40.739Z,8.70
2018-12-23T11:32:09.060Z,8.70
2018-12-23T11:34:37.286Z,8.60
2018-12-23T11:37:05.535Z,8.60
2018-12-23T11:39:34.186Z,8.60
2018-12-23T11:42:03.077Z,8.70
2018-12-23T11:44:33.715Z,8.60
2018-12-23T11:47:02.448Z,8.60
2018-12-23T11:49:31.006Z,8.50
2018-12-23T11:51:59.475Z,8.50
2018-12-23T11:54:27.723Z,8.50
2018-12-23T11:56:55.963Z,8.50
2018-12-23T11:59:24.216Z,8.50
2018-12-23T12:01:52.442Z,8.40
2018-12-23T12:04:20.731Z,8.50
2018-12-23T12:06:49.096Z,8.50
2018-12-23T12:09:17.345Z,8.50
2018-12-23T12:11:46.587Z,8.40
2018-12-23T12:14:14.821Z,8.40
2018-12-23T12:16:43.067Z,8.40
2018-12-23T12:19:11.347Z,8.40
2018-12-23T12:21:39.657Z,8.30
2018-12-23T12:24:07.916Z,8.40
2018-12-23T12:26:36.129Z,8.50
2018-12-23T12:29:04.986Z,8.50
2018-12-23T12:31:33.217Z,8.50
2018-12-23T12:34:02.560Z,8.40
2018-12-23T12:36:30.861Z,8.50
2018-12-23T12:39:10.765Z,8.40
2018-12-23T12:41:38.982Z,8.40
2018-12-23T12:44:07.232Z,8.40
2018-12-23T12:46:35.410Z,8.40
2018-12-23T12:49:03.610Z,8.40
2018-12-23T12:51:32.033Z,8.30
2018-12-23T12:54:01.813Z,8.30
2018-12-23T12:56:30.363Z,8.20
2018-12-23T12:58:58.891Z,8.30
2018-12-23T13:01:27.536Z,8.20
2018-12-23T13:03:56.248Z,8.20
2018-12-23T13:06:28.193Z,8.20
2018-12-23T13:09:00.434Z,8.20
2018-12-23T13:23:13.875Z,8.00
2018-12-23T13:25:42.399Z,7.90
2018-12-23T13:28:10.715Z,7.90
2018-12-23T13:30:39.017Z,7.90
2018-12-23T13:33:07.329Z,7.80
2018-12-23T13:35:35.870Z,7.80
2018-12-23T13:38:05.438Z,7.80
2018-12-23T13:42:51.231Z,7.80
2018-12-23T13:45:32.213Z,7.80
2018-12-23T13:48:28.760Z,7.80
2018-12-23T13:51:10.825Z,7.70
2018-12-23T13:55:06.317Z,7.60
2018-12-23T13:58:55.488Z,7.60
2018-12-23T14:01:34.730Z,7.60
2018-12-23T14:08:20.863Z,7.40
2018-12-23T14:11:55.972Z,7.60
2018-12-23T14:14:24.303Z,7.50
2018-12-23T14:16:52.996Z,7.40
2018-12-23T14:19:21.371Z,7.40
2018-12-23T14:21:50.136Z,7.50
2018-12-23T14:24:19.842Z,7.50
2018-12-23T14:26:48.069Z,7.40
2018-12-23T14:29:16.346Z,7.50
2018-12-23T14:31:44.837Z,7.40
2018-12-23T14:34:13.940Z,7.40
2018-12-23T14:36:42.316Z,7.20
2018-12-23T14:39:10.896Z,7.30
2018-12-23T14:41:40.160Z,7.20
2018-12-23T14:44:12.925Z,7.20
2018-12-23T14:46:43.632Z,7.20
2018-12-23T14:49:11.977Z,7.20
2018-12-23T14:51:41.622Z,7.20
2018-12-23T14:54:10.238Z,7.20
2018-12-23T14:56:39.602Z,7.10
2018-12-23T14:59:08.039Z,7.10
2018-12-23T15:01:39.618Z,7.10
2018-12-23T15:04:11.205Z,7.10
2018-12-23T15:06:41.406Z,7.00
2018-12-23T15:09:09.597Z,7.10
2018-12-23T15:11:37.986Z,7.10
2018-12-23T15:14:06.558Z,7.20
2018-12-23T15:16:34.756Z,7.10
2018-12-23T15:19:07.094Z,7.20
2018-12-23T15:21:40.856Z,7.20
2018-12-23T15:24:14.258Z,7.20
2018-12-23T15:26:42.644Z,7.20
2018-12-23T15:29:10.843Z,7.20
2018-12-23T15:31:39.039Z,7.20
2018-12-23T15:34:07.354Z,7.20
2018-12-23T15:36:35.601Z,7.20
2018-12-23T15:39:05.529Z,7.30
2018-12-23T15:41:34.197Z,7.30
2018-12-23T15:44:03.096Z,7.30
2018-12-23T15:46:31.351Z,7.30
2018-12-23T15:48:59.609Z,7.40
2018-12-23T15:51:27.780Z,7.40
2018-12-23T15:53:56.013Z,7.40
2018-12-23T15:56:24.359Z,7.40
2018-12-23T15:58:52.653Z,7.40
2018-12-23T16:01:20.857Z,7.30
2018-12-23T16:03:50.164Z,7.40
2018-12-23T16:06:18.600Z,7.40
2018-12-23T16:08:46.816Z,7.50
2018-12-23T16:11:15.073Z,7.50
2018-12-23T16:13:43.437Z,7.50
2018-12-23T16:16:11.718Z,7.50
2018-12-23T16:18:39.926Z,7.50
2018-12-23T16:24:07.576Z,7.50
2018-12-23T16:26:35.970Z,7.60
2018-12-23T16:29:04.255Z,7.60
2018-12-23T16:31:32.553Z,7.60
2018-12-23T16:34:00.826Z,7.70
2018-12-23T16:36:29.032Z,7.70
2018-12-23T16:38:57.553Z,7.70
2018-12-23T16:41:25.736Z,7.70
2018-12-23T16:43:54.059Z,7.70
2018-12-23T16:46:22.365Z,7.80
2018-12-23T16:48:50.593Z,7.90
2018-12-23T16:51:18.821Z,7.90
2018-12-23T16:54:03.172Z,7.90
2018-12-23T16:56:31.473Z,8.00
2018-12-23T16:58:59.689Z,8.00
2018-12-23T17:01:27.905Z,8.10
2018-12-23T17:04:03.200Z,8.20
2018-12-23T17:06:31.709Z,8.20
2018-12-23T17:09:00.011Z,8.20
2018-12-23T17:11:28.431Z,8.20
2018-12-23T17:13:56.662Z,8.20
2018-12-23T17:16:24.866Z,8.20
2018-12-23T17:18:53.238Z,8.20
2018-12-23T17:21:21.426Z,8.30
2018-12-23T17:23:49.698Z,8.30
2018-12-23T17:26:18.015Z,8.30
2018-12-23T17:28:46.219Z,8.30
2018-12-23T17:31:14.446Z,8.30
2018-12-23T17:33:42.969Z,8.30
2018-12-23T17:36:11.232Z,8.30
2018-12-23T17:38:39.652Z,8.40
2018-12-23T17:41:07.997Z,8.40
2018-12-23T17:43:38.258Z,8.40
2018-12-23T17:46:06.534Z,8.40
2018-12-23T17:48:34.786Z,8.40
2018-12-23T17:51:04.150Z,8.50
2018-12-23T17:53:34.679Z,8.50
2018-12-23T17:56:03.617Z,8.50
2018-12-23T17:58:32.023Z,8.60
2018-12-23T18:01:00.415Z,8.60
2018-12-23T18:03:30.981Z,8.60
2018-12-23T18:05:59.317Z,8.60
2018-12-23T18:08:27.550Z,8.60
2018-12-23T18:10:56.150Z,8.60
2018-12-23T18:13:24.323Z,8.60
2018-12-23T18:15:52.790Z,8.60
2018-12-23T18:18:21.085Z,8.70
2018-12-23T18:20:49.365Z,8.70
2018-12-23T18:23:17.632Z,8.70
2018-12-23T18:25:45.876Z,8.70
2018-12-23T18:28:14.073Z,8.80
2018-12-23T18:30:42.488Z,8.70
2018-12-23T18:33:10.698Z,8.80
2018-12-23T18:35:38.889Z,8.80
2018-12-23T18:38:07.188Z,8.80
2018-12-23T18:40:35.401Z,8.80
2018-12-23T18:43:03.771Z,8.80
2018-12-23T18:45:32.113Z,8.90
2018-12-23T18:48:00.350Z,8.90
2018-12-23T18:50:29.056Z,8.90
2018-12-23T18:52:57.258Z,8.90
2018-12-23T18:55:27.419Z,9.00
2018-12-23T18:57:55.709Z,9.00
2018-12-23T19:00:24.100Z,9.00
2018-12-23T19:02:55.401Z,8.90
2018-12-23T19:05:23.661Z,9.00
2018-12-23T19:07:54.953Z,9.00
2018-12-23T19:10:41.967Z,8.90
2018-12-23T19:13:19.123Z,9.00
2018-12-23T19:16:09.888Z,9.00
2018-12-23T19:19:22.569Z,9.00
2018-12-23T19:22:11.401Z,9.00
2018-12-23T19:27:00.112Z,9.00
2018-12-23T19:29:39.022Z,9.00
2018-12-23T19:32:24.007Z,9.10
2018-12-23T19:35:06.264Z,9.10
2018-12-23T19:37:47.389Z,9.10
2018-12-23T19:40:27.761Z,9.00
2018-12-23T19:43:16.905Z,9.10
2018-12-23T19:46:04.137Z,9.10
2018-12-23T19:48:43.680Z,9.10
2018-12-23T19:51:23.876Z,9.10
2018-12-23T19:54:10.264Z,9.20
2018-12-23T19:57:53.812Z,9.10
2018-12-23T20:00:34.441Z,9.20
2018-12-23T20:03:48.279Z,9.20
2018-12-23T20:06:28.488Z,9.20
2018-12-23T20:09:14.233Z,9.10
2018-12-23T20:13:58.956Z,9.20
2018-12-23T20:16:37.915Z,9.20
2018-12-23T20:20:03.430Z,9.20
2018-12-23T20:22:47.075Z,9.20
2018-12-23T20:26:04.620Z,9.20
2018-12-23T20:28:48.765Z,9.20
2018-12-23T20:31:25.106Z,9.20
2018-12-23T20:34:04.316Z,9.30
2018-12-23T20:36:44.159Z,9.30
2018-12-23T20:40:22.933Z,9.30
2018-12-23T20:43:01.523Z,9.30
2018-12-23T20:45:40.084Z,9.30
2018-12-23T20:48:19.116Z,9.30
2018-12-23T20:54:08.505Z,9.30
2018-12-23T20:56:59.168Z,9.30
2018-12-23T20:59:57.412Z,9.40
2018-12-23T21:02:38.082Z,9.30
2018-12-23T21:07:55.380Z,9.30
2018-12-23T21:12:56.151Z,9.40
2018-12-23T21:17:42.620Z,9.40
2018-12-23T21:20:23.095Z,9.40
2018-12-23T21:23:03.535Z,9.40
2018-12-23T21:26:53.662Z,9.40
2018-12-23T21:30:05.447Z,9.40
2018-12-23T21:32:44.960Z,9.40
2018-12-23T21:35:29.837Z,9.40
2018-12-23T21:38:13.140Z,9.40
2018-12-23T21:41:59.169Z,9.50
2018-12-23T21:46:45.111Z,9.50
2018-12-23T21:49:25.496Z,9.50
2018-12-23T21:52:23.632Z,9.40
2018-12-23T21:55:32.552Z,9.40
2018-12-23T21:58:16.635Z,9.40
2018-12-23T22:00:59.152Z,9.40
2018-12-23T22:03:55.863Z,9.40
2018-12-23T22:06:35.839Z,9.40
2018-12-23T22:11:17.657Z,9.40
2018-12-23T22:13:45.832Z,9.40
2018-12-23T22:17:10.469Z,9.40
2018-12-23T22:19:51.180Z,9.40
2018-12-23T22:22:31.852Z,9.50
2018-12-23T22:25:12.727Z,9.50
2018-12-23T22:27:41.625Z,9.50
2018-12-23T22:30:29.749Z,9.50
2018-12-23T22:33:17.781Z,9.50
2018-12-23T22:36:05.829Z,9.50
2018-12-23T22:38:47.074Z,9.50
2018-12-23T22:41:28.420Z,9.50
2018-12-23T22:44:09.183Z,9.50
2018-12-23T22:46:49.829Z,9.50
2018-12-23T22:49:30.703Z,9.50
2018-12-23T22:52:11.459Z,9.50
2018-12-23T22:54:40.317Z,9.60
2018-12-23T22:57:28.430Z,9.60
2018-12-23T23:03:27.689Z,9.60
2018-12-23T23:06:15.701Z,9.70
2018-12-23T23:09:24.390Z,9.60
2018-12-23T23:12:12.440Z,9.60
2018-12-23T23:15:00.565Z,9.70
2018-12-23T23:17:48.682Z,9.70
2018-12-23T23:20:36.734Z,9.60
2018-12-23T23:23:24.845Z,9.60
2018-12-23T23:26:12.916Z,9.70
2018-12-23T23:29:00.948Z,9.70
2018-12-23T23:31:49.004Z,9.70
2018-12-23T23:34:37.062Z,9.70
2018-12-23T23:37:25.127Z,9.70
2018-12-23T23:40:06.281Z,9.70
2018-12-23T23:42:47.093Z,9.70
2018-12-23T23:45:27.958Z,9.70
2018-12-23T23:48:08.623Z,9.70
2018-12-23T23:50:49.237Z,9.70
2018-12-23T23:53:30.031Z,9.60
2018-12-23T23:56:10.865Z,9.60
2018-12-23T23:58:51.451Z,9.60
